Tiempo atmosférico en la estación meteorológica de Girona Aeropuerto, Girona (143 m.)



Fecha
DESCASC
Temp. máxima en grados centígrados (hora)
DESCASC
Temp. mínima en grados centígrados (hora)
DESCASC
Temp. media en grados centígrados
DESCASC
Racha de viento máxima en m/sg (hora)
DESCASC
Velocidad máxima media en intervalos de 10 minutos(hora)
DESCASC
Precipitaciones diarias en mm
DESCASC
Precipitaciones de 00:00 a 06:00 en mm
DESCASC
Precipitaciones de 06:00 a 12:00 en mm
DESCASC
Precipitaciones de 12:00 a 18:00 en mm
DESCASC
Precipitaciones de 18:00 a 24:00 en mm
DESCASC
25-01-2020 13.7 (15:30) 3.5 (08:10) 8.6 5.83 (15:50) 3.89 (15:10) 0 0 0 0 0
24-01-2020 16.2 (15:10) 1.1 (08:10) 8.7 7.78 (17:00) 5.83 (17:30) 0 0 0 0 0
23-01-2020 15.2 (13:00) 5.3 (23:50) 10.3 12.78 (09:20) 7.22 (09:20) 44.7 21.3 23.4 0 0
22-01-2020 13.9 (12:50) 8 (00:00) 10.9 18.06 (01:50) 10.83 (01:30) 52.3 31.7 14.9 1.5 4.2
21-01-2020 10.6 (20:40) 3.9 (00:00) 7.3 20.56 (12:30) 13.33 (11:00) 77.7 43.9 19.8 3.3 10.7
20-01-2020 7.1 (00:30) 3.1 (00:00) 5.1 21.67 (12:20) 14.17 (09:30) 52 0.2 2.2 20.1 29.5
19-01-2020 10.8 (14:20) 5.2 (00:00) 8 24.17 (14:30) 17.22 (13:30) 1.4 0 0 1.2 0.2
18-01-2020 13.1 (13:50) 1.3 (00:00) 7.2 8.33 (14:40) 6.67 (15:00) 0 0 0 0 0
17-01-2020 19.2 (14:50) 2 (00:00) 10.6 14.44 (16:00) 8.89 (16:10) 0 0 0 0 0
16-01-2020 14.4 (14:10) 0.1 (00:00) 7.2 9.72 (23:50) 7.5 (15:50) 0 0 0 0 0
15-01-2020 14.6 (15:20) 3 (00:00) 8.8 9.72 (00:20) 7.22 (07:20) 0 0 0 0 0
14-01-2020 15.5 (14:50) -2.7 (-00:0) 6.4 13.89 (20:50) 8.61 (20:50) 0 0 0 0 0
13-01-2020 12.4 (14:50) -3.3 (-00:0) 4.5 4.72 (14:40) 3.33 (16:00) 0 0 0 0 0
12-01-2020 15 (16:30) -2.6 (-00:0) 6.2 3.61 (17:50) 2.78 (23:10) 0 0 0 0 0
11-01-2020 12.5 (16:00) 0.7 (00:00) 6.6 5.83 (11:50) 3.61 (14:40) 0 0 0 0 0
10-01-2020 13.6 (16:10) 3.9 (00:00) 8.8 6.67 (06:00) 4.44 (06:00) 10.7 0 10.7 0 0
09-01-2020 15.2 (14:40) -0.7 (-00:0) 7.2 12.5 (22:50) 8.89 (21:20) 0 0 0 0 0
08-01-2020 15.7 (14:40) 1.2 (00:00) 8.4 8.89 (12:30) 6.39 (12:30) 0 0 0 0 0
07-01-2020 16.5 (16:00) -1.4 (-00:0) 7.6 4.72 (20:00) 3.33 (19:40) 0 0 0 0 0
06-01-2020 15.4 (16:40) -0.7 (-00:0) 7.3 5 (01:20) 3.33 (01:20) 0 0 0 0 0
05-01-2020 16.6 (14:40) -1.9 (-00:0) 7.4 5 (20:50) 3.61 (15:10) 0 0 0 0 0
04-01-2020 15.9 (15:30) -1.2 (-00:0) 7.3 4.17 (03:00) 3.61 (16:40) 0 0 0 0 0
03-01-2020 13.4 (14:10) -0.2 (00:00) 6.6 3.06 (01:50) 2.5 (01:40) 0 0 0 0 0
02-01-2020 12.3 (14:30) 0.1 (00:00) 6.2 8.89 (13:50) 6.94 (13:50) 0 0 0 0 0
01-01-2020 13.3 (14:50) -0.1 (00:00) 6.6 5.83 (14:30) 4.17 (15:10) 0 0 0 0 0
31-12-2019 15 (13:40) 3.2 (00:00) 9.1 7.22 (13:50) 5.56 (13:50) 0 0 0 0 0
30-12-2019 13.6 (14:40) 2.6 (00:00) 8.1 5.83 (13:30) 3.89 (13:40) 0 0 0 0 0
29-12-2019 14.1 (13:30) 1.2 (00:00) 7.7 3.61 (00:40) 2.78 (21:30) 0 0 0 0 0
28-12-2019 15.5 (16:00) 0.8 (00:00) 8.2 4.72 (18:10) 2.78 (17:30) 0 0 0 0 0

Gráficas

Temp. máximas Temp. mínimas Temp. medias Precipitaciones Rachas de viento máximas Velocidades máximas media en intervalos de 10 minutos

Datos horarios

Fecha y hora oficial Temperatura (ºC) Velocidad del viento (km/h) Dirección del viento Racha (km/h) Dirección de racha Precipitación (mm) Presión (hPa) Tendencia (hPa) Humedad (%)
2020-01-26 23:00:00 7.5 3 Norte 8 Este 0 1006.4 0.6 93
2020-01-26 22:00:00 8.1 6 Oeste 9 Sudoeste 0 1006.3 0.8 93
2020-01-26 21:00:00 8.7 6 Oeste 8 Oeste 0 1006.2 1.5 88
2020-01-26 20:00:00 10.1 4 Sudoeste 5 Sudoeste 0 1005.8 1.7 84
2020-01-26 19:00:00 10.6 0 Calma 8 Este 0 1005.5 1.8 83
2020-01-26 18:00:00 11.3 4 Este 21 Nordeste 0 1004.7 1.4 77
2020-01-26 17:00:00 12 13 Norte 26 Nordeste 0 1004.1 0.6 70
2020-01-26 16:00:00 13.4 18 Nordeste 30 Nordeste 0 1003.7 -0.1 65
2020-01-26 15:00:00 13.2 19 Norte 35 Nordeste 0 1003.3 -0.9 64
2020-01-26 14:00:00 13.9 15 Nordeste 22 Nordeste 0 1003.5 -0.3 67
2020-01-26 13:00:00 12.7 14 Nordeste 24 Este 0 1003.8 0.6 80
2020-01-26 12:00:00 12 16 Nordeste 24 Norte 0 1004.2 1.5 79
2020-01-26 11:00:00 10.2 6 Nordeste 9 Nordeste 0 1003.8 1.7 93
2020-01-26 10:00:00 6.9 0 Calma 9 Nordeste 0 1003.2 1.4 100
2020-01-26 09:00:00 5.4 4 Noroeste 5 Noroeste 0 1002.7 1.2 100
2020-01-26 08:00:00 4.9 6 Nordeste 8 Nordeste 0 1002.1 0.6 100
2020-01-26 07:00:00 5.9 0 Calma 5 Sur 0 1001.8 0.1 100
2020-01-26 06:00:00 6.3 0 Calma 8 Norte 0 1001.5 -0.5 100
2020-01-26 05:00:00 6.8 3 Oeste 5 Oeste 0 1001.5 -0.6 99
2020-01-26 04:00:00 6.6 5 Oeste 8 Oeste 0 1001.7 -0.6 99
2020-01-26 03:00:00 7.5 4 Oeste -- -- 0 1002 -0.8 100
2020-01-26 02:00:00 7.5 5 Nordeste 8 Norte 0 1002.1 -0.9 98
2020-01-26 01:00:00 8.5 6 Noroeste 8 Noroeste 0 1002.3 -0.9 98
2020-01-26 00:00:00 9.6 3 Sudoeste 5 Sudoeste 0 1002.8 -0.4 99
2020-01-25 23:00:00 10.2 5 Oeste 9 Oeste 0 1003 -0.2 99
2020-01-25 22:00:00 10.1 0 Calma 5 Oeste 0 1003.2 0.3 98
2020-01-25 21:00:00 10.7 4 Sudoeste 8 Sudoeste 0 1003.2 0.7 98
2020-01-25 20:00:00 10.7 0 Calma -- -- 0 1003.2 0.7 97
2020-01-25 19:00:00 11 0 Calma 9 Sudoeste 0 1002.9 0.2 94
2020-01-25 18:00:00 11.4 7 Sudoeste 13 Sur 0 1002.5 -0.6 93
2020-01-25 17:00:00 12.5 10 Sudoeste 18 Sur 0 1002.5 -1.3 85
2020-01-25 16:00:00 13.2 14 Sur 21 Sur 0 1002.7 -2.1 80
2020-01-25 15:00:00 13.2 13 Sur 18 Sur 0 1003.1 -2.8 80
2020-01-25 14:00:00 12.7 10 Sur 15 Sur 0 1003.8 -2 82
2020-01-25 13:00:00 11.7 2 Sudeste 11 Este 0 1004.8 -0.7 84
2020-01-25 12:00:00 9.4 4 Sudeste 11 Sur 0 1005.9 0.7 92
2020-01-25 11:00:00 7.5 5 Sudoeste 8 Sudoeste 0 1005.8 0.9 95
2020-01-25 10:00:00 6 7 Oeste 11 Oeste 0 1005.5 0.7 100
2020-01-25 09:00:00 4.1 5 Oeste 8 Oeste 0 1005.2 0.4 100
2020-01-25 08:00:00 3.7 0 Calma 4 Este 0 1004.9 0.2 100
2020-01-25 07:00:00 4.1 2 Este 8 Oeste 0 1004.8 -0.2 100
2020-01-25 06:00:00 4 6 Noroeste 9 Oeste 0 1004.8 -0.5 100
2020-01-25 05:00:00 4.3 0 Calma 5 Sur 0 1004.7 -1 100
2020-01-25 04:00:00 4 0 Calma 5 Nordeste 0 1005 -0.9 100
2020-01-25 03:00:00 4.7 0 Calma 8 Nordeste 0 1005.3 -0.7 100
2020-01-25 02:00:00 3.8 4 Norte 8 Norte 0 1005.7 -0.4 99
2020-01-25 01:00:00 4.9 0 Calma 8 Norte 0 1005.9 -0.2 98
2020-01-25 00:00:00 5.8 0 Calma -- -- 0 1006 0.1 98
2020-01-24 23:00:00 6.6 0 Calma 11 Noroeste 0 1006.1 0.6 97
2020-01-24 22:00:00 8 7 Noroeste 13 Noroeste 0 1006.1 1 93
2020-01-24 21:00:00 8.4 6 Noroeste 13 Norte 0 1005.9 1.6 95
2020-01-24 20:00:00 9.3 8 Norte 15 Norte 0 1005.5 1.5 95
2020-01-24 19:00:00 9.3 10 Norte 18 Nordeste 0 1005.1 1.5 96
2020-01-24 18:00:00 10.4 14 Nordeste 28 Nordeste 0 1004.3 0.6 90
2020-01-24 17:00:00 12.7 16 Norte 28 Nordeste 0 1004 -0.1 81
2020-01-24 16:00:00 15.8 9 Sur 13 Sur 0 1003.6 -1.4 59
2020-01-24 15:00:00 15.9 3 Sudoeste 8 Sur 0 1003.7 -2.1 58
2020-01-24 14:00:00 14.5 3 Sudoeste 9 Sur 0 1004.1 -1.6 61
2020-01-24 13:00:00 12.8 5 Sur 9 Sudeste 0 1005 -0.9 65
2020-01-24 12:00:00 10.9 0 Calma 11 Sur 0 1005.8 -0.2 80
2020-01-24 11:00:00 8.1 5 Sudoeste 8 Sudoeste 0 1005.7 -0.1 91
2020-01-24 10:00:00 4.5 3 Oeste 5 Oeste 0 1005.9 0.5 100
2020-01-24 09:00:00 2.1 0 Calma 13 Oeste 0 1006 0.8 100
2020-01-24 08:00:00 1.4 8 Oeste 11 Oeste 0 1005.8 0.5 100
2020-01-24 07:00:00 1.5 3 Sudoeste 5 Sur 0 1005.4 -0.5 100
2020-01-24 06:00:00 1.9 3 Oeste -- -- 0 1005.2 -1.3 100
2020-01-24 05:00:00 2.4 3 Sur 11 Oeste 0 1005.3 -1.6 100
2020-01-24 04:00:00 2.9 7 Oeste -- -- 0 1005.9 -1.5 100
2020-01-24 03:00:00 3.3 6 Sudoeste 8 Oeste 0 1006.5 -1 100
2020-01-24 02:00:00 4.7 0 Calma 8 Oeste 0 1006.9 -0.6 100
2020-01-24 01:00:00 5.2 0 Calma 4 Oeste 0 1007.4 0.1 100
2020-01-24 00:00:00 5.5 0 Calma 4 Oeste 0 1007.5 0.6 99
2020-01-23 23:00:00 6.2 0 Calma 9 Oeste 0 1007.5 1 99
2020-01-23 22:00:00 6.7 0 Calma 5 Sudoeste 0 1007.3 1.2 98
2020-01-23 21:00:00 8 5 Oeste 11 Sudoeste 0 1006.9 1.7 97
2020-01-23 20:00:00 9 8 Sudoeste 17 Sudeste 0 1006.5 1.4 94
2020-01-23 19:00:00 10.1 10 Sudeste 17 Sudeste 0 1006.1 1.5 90
2020-01-23 18:00:00 11.3 14 Sur 22 Sur 0 1005.2 0.6 87
2020-01-23 17:00:00 13.3 14 Sur 22 Sur 0 1005.1 0.2 80
2020-01-23 16:00:00 14.3 14 Sur 28 Sur 0 1004.6 -0.7 76
2020-01-23 15:00:00 14.3 20 Sur 30 Sur 0 1004.6 -1.1 76
2020-01-23 14:00:00 14.8 12 Sudoeste 24 Sur 0 1004.9 -0.7 75
2020-01-23 13:00:00 15.1 8 Sudoeste 13 Sur 0 1005.3 0.5 74
2020-01-23 12:00:00 13.4 0 Calma 11 Sudeste 0 1005.7 1.2 88
2020-01-23 11:00:00 12.1 9 Sudeste 18 Este 0 1005.6 1.8 92
2020-01-23 10:00:00 11 10 Sur 46 Sur 21 1004.8 1.4 97
2020-01-23 09:00:00 12.7 22 Sudeste 41 Sudeste 0.5 1004.5 1.1 97
2020-01-23 08:00:00 12 7 Este 22 Este 0 1003.8 0.4 97
2020-01-23 07:00:00 12.3 15 Este 33 Sudeste 1.9 1003.4 -0.8 96
2020-01-23 06:00:00 12.6 24 Este 41 Este 10.5 1003.4 -1.1 98
2020-01-23 05:00:00 12.5 17 Este 30 Este 2.1 1003.4 -1.4 98
2020-01-23 04:00:00 12.6 19 Este 37 Este 2.6 1004.2 -1.4 98
2020-01-23 03:00:00 12.6 19 Este 30 Este 2.5 1004.5 -1.7 97
2020-01-23 02:00:00 12.4 18 Este 30 Este 2.7 1004.8 -1.5 98
2020-01-23 01:00:00 12.6 10 Este 24 Este 0.9 1005.6 -0.6 97
2020-01-23 00:00:00 12.4 6 Sudeste 17 Sudeste 0.8 1006.2 0.3 98
2020-01-22 23:00:00 12.5 8 Nordeste 24 Este 0.6 1006.3 0.4 96
2020-01-22 22:00:00 12.9 17 Este 28 Este 1 1006.2 0.8 94
2020-01-22 21:00:00 12.9 16 Este 35 Sudeste 0.5 1005.9 0.8 95
2020-01-22 20:00:00 12.9 15 Este 41 Este 1 1005.9 1 94
2020-01-22 19:00:00 13.1 17 Este 42 Este 0.3 1005.4 0 92
2020-01-22 18:00:00 13.1 20 Este 39 Este 0 1005.1 -0.6 92
2020-01-22 17:00:00 13.3 21 Este 37 Este 0 1004.9 -1.1 92
2020-01-22 16:00:00 13.2 24 Este 42 Sudeste 0.8 1005.4 -1.3 93
2020-01-22 15:00:00 13.5 24 Sudeste 41 Sudeste 0.1 1005.7 -1.7 92
2020-01-22 14:00:00 13.5 20 Sudeste 41 Sudeste 0.4 1006 -1.4 91
2020-01-22 13:00:00 13.6 23 Sudeste 39 Sudeste 0.2 1006.7 -0.3 91
2020-01-22 12:00:00 13.4 22 Sudeste 52 Este 1.3 1007.4 0.4 95
2020-01-22 11:00:00 13.1 28 Sudeste 54 Sudeste 0.9 1007.4 0.9 95
2020-01-22 10:00:00 13.1 26 Este 42 Este 0 1007 1.1 93
2020-01-22 09:00:00 9.9 6 Noroeste 30 Oeste 0.7 1007 1.9 95
2020-01-22 08:00:00 8 7 Noroeste 32 Noroeste 9.1 1006.5 0.9 95
2020-01-22 07:00:00 11.7 18 Sudeste 48 Este 2.9 1005.9 0 90
2020-01-22 06:00:00 12.6 31 Sudeste 54 Sudeste 2.1 1005.1 -0.9 96
2020-01-22 05:00:00 10.9 15 Sudeste 48 Nordeste 8.2 1005.6 -0.4 98
2020-01-22 04:00:00 10.7 29 Este 50 Este 4.3 1005.9 -1.8 99
2020-01-22 03:00:00 11.1 29 Este 55 Este 4.4 1006 -2.3 100
2020-01-22 02:00:00 10.6 38 Nordeste 65 Nordeste 6.2 1006 -2.5 100
2020-01-22 01:00:00 10.3 36 Este 59 Nordeste 6.5 1007.7 -1.3 100
2020-01-22 00:00:00 10.1 39 Nordeste 61 Este 5.1 1008.3 -1.5 100
2020-01-21 23:00:00 10 40 Nordeste 61 Este 2.4 1008.5 -1.9 98
2020-01-21 22:00:00 9.9 41 Nordeste 72 Este 2.7 1009 -1.6 96
2020-01-21 21:00:00 10.5 42 Nordeste 67 Nordeste 0.5 1009.8 -0.9 87
2020-01-21 20:00:00 10.4 41 Nordeste 63 Este 0 1010.4 -0.6 87
2020-01-21 19:00:00 10.1 37 Nordeste 63 Nordeste 0 1010.6 -0.8 89
2020-01-21 18:00:00 10.1 40 Nordeste 61 Nordeste 0 1010.7 -0.7 89
2020-01-21 17:00:00 10 39 Nordeste 52 Nordeste 0 1011 -0.2 91
2020-01-21 16:00:00 9.8 35 Nordeste 59 Nordeste 0 1011.4 -0.3 93
2020-01-21 15:00:00 9.2 36 Nordeste 67 Nordeste 0.1 1011.4 -0.6 98
2020-01-21 14:00:00 9 43 Nordeste 65 Este 2.1 1011.2 -1.1 100
2020-01-21 13:00:00 9 42 Nordeste 74 Este 1.1 1011.7 -0.6 100
2020-01-21 12:00:00 8.9 38 Este 71 Este 4 1012 0.1 100
2020-01-21 11:00:00 8.6 48 Nordeste 68 Este 1.7 1012.3 0.5 100
2020-01-21 10:00:00 8.5 43 Nordeste 68 Nordeste 1.9 1012.3 0.1 100
2020-01-21 09:00:00 8 41 Nordeste 61 Nordeste 1.6 1011.9 -0.4 100
2020-01-21 08:00:00 5.8 35 Norte 54 Nordeste 4.7 1011.8 -0.8 100
2020-01-21 07:00:00 4.9 33 Norte -- -- -- 1012.2 -0.7 100
2020-01-21 06:00:00 4.9 36 Norte 58 Norte 7.8 1012.3 -1.2 100
2020-01-21 05:00:00 4.3 41 Norte 63 Norte 12.2 1012.6 -1.3 100
2020-01-21 04:00:00 4.2 33 Norte 58 Norte 7 1012.9 -1.8 100
2020-01-21 03:00:00 4.1 36 Norte 54 Norte 6 1013.5 -1.2 100
2020-01-21 02:00:00 4.2 42 Norte 61 Norte 6.1 1013.9 -0.8 100
2020-01-21 01:00:00 3.9 37 Norte 55 Norte 4.8 1014.7 -0.4 100
2020-01-21 00:00:00 4.3 38 Norte 52 Nordeste 4.3 1014.7 -0.3 100
2020-01-20 23:00:00 4.3 33 Norte 52 Norte 4.9 1014.7 -0.4 100
2020-01-20 22:00:00 4.6 31 Norte 48 Norte 4.4 1015.1 0.4 100
2020-01-20 21:00:00 4.5 32 Norte 58 Norte 5 1015 0.9 100
2020-01-20 20:00:00 4.1 33 Norte 54 Nordeste 5.4 1015.1 1.6 100
2020-01-20 19:00:00 3.2 39 Norte 58 Norte 5.5 1014.7 1.2 100
2020-01-20 18:00:00 3.4 40 Norte 63 Norte 5.7 1014.1 0.7 100
2020-01-20 17:00:00 3.6 39 Norte 61 Norte 4.9 1013.5 -0.2 100
2020-01-20 16:00:00 3.4 41 Norte 63 Nordeste 4.6 1013.5 -0.3 100
2020-01-20 15:00:00 3.5 41 Norte 61 Norte 2.6 1013.4 -0.7 100
2020-01-20 14:00:00 3.9 36 Nordeste 72 Nordeste 1.3 1013.7 0.1 98
2020-01-20 13:00:00 4.4 40 Nordeste 78 Nordeste 1 1013.8 1.3 96
2020-01-20 12:00:00 4.5 45 Nordeste 72 Norte 0.4 1014.1 2.1 86
2020-01-20 11:00:00 5.7 44 Nordeste 71 Nordeste 0.6 1013.6 2.4 66
2020-01-20 10:00:00 6.2 50 Norte 76 Nordeste 0.6 1012.5 1.8 57
2020-01-20 09:00:00 6 46 Nordeste 68 Nordeste 0 1012 1.7 54
2020-01-20 08:00:00 6.1 41 Norte 71 Norte 0 1011.2 1 48
2020-01-20 07:00:00 6.3 48 Nordeste 74 Norte 0.6 1010.7 0.3 44
2020-01-20 06:00:00 6.7 43 Norte 65 Nordeste 0 1010.3 0.1 39
2020-01-20 05:00:00 6.5 34 Norte 55 Norte 0 1010.2 -0.2 39
2020-01-20 04:00:00 6.5 33 Nordeste 67 Norte 0 1010.4 -0.2 39
2020-01-20 03:00:00 6.9 39 Nordeste 65 Nordeste 0 1010.2 -0.7 35
2020-01-20 02:00:00 6.9 40 Nordeste 63 Nordeste 0 1010.4 0.1 35
2020-01-20 01:00:00 7 39 Nordeste 63 Nordeste 0.2 1010.6 0.9 36
2020-01-20 00:00:00 7 49 Nordeste 68 Nordeste 0.2 1010.9 1.4 37
2020-01-19 23:00:00 7.1 44 Nordeste 71 Nordeste 0 1010.3 1.6 38
2020-01-19 22:00:00 7.2 45 Nordeste 67 Nordeste 0 1009.7 1.2 37
2020-01-19 21:00:00 7.3 40 Nordeste 61 Nordeste 0 1009.5 1.2 35
2020-01-19 20:00:00 7.6 39 Norte 65 Nordeste 0 1008.7 0.7 35
2020-01-19 19:00:00 8.2 42 Nordeste 65 Nordeste 0 1008.5 1.3 35
2020-01-19 18:00:00 8.5 43 Nordeste 67 Norte 0 1008.3 1.9 37
2020-01-19 17:00:00 9 41 Nordeste 72 Nordeste 0 1008 1.7 31
2020-01-19 16:00:00 9.6 49 Nordeste 74 Nordeste 0 1007.2 0.7 31
2020-01-19 15:00:00 9.8 55 Nordeste 87 Norte 0.4 1006.4 -0.4 33
2020-01-19 14:00:00 10.1 51 Nordeste 85 Norte 0.8 1006.3 0 37
2020-01-19 13:00:00 9.7 54 Nordeste 74 Nordeste 0 1006.5 0.1 40
2020-01-19 12:00:00 9.4 48 Nordeste 67 Nordeste 0 1006.8 0.9 39
2020-01-19 11:00:00 8.7 39 Nordeste 63 Nordeste 0 1006.3 1.1 44
2020-01-19 10:00:00 6.7 32 Nordeste 55 Nordeste 0 1006.4 1.1 57
2020-01-19 09:00:00 6.6 36 Nordeste 65 Nordeste 0 1005.9 1.1 58
2020-01-19 08:00:00 6.5 35 Nordeste 55 Norte 0 1005.2 0.5 63
2020-01-19 07:00:00 6.4 36 Nordeste 50 Nordeste 0 1005.3 0.5 73
2020-01-19 06:00:00 6.6 32 Nordeste 48 Nordeste 0 1004.8 -0.1 78
2020-01-19 05:00:00 6.1 31 Nordeste 46 Nordeste 0 1004.7 0 93
2020-01-19 04:00:00 6.6 24 Nordeste 37 Nordeste 0 1004.8 -0.3 93
2020-01-19 03:00:00 7.7 24 Norte 33 Norte 0 1004.9 -0.6 89
2020-01-19 02:00:00 7.1 8 Norte 13 Nordeste 0 1004.7 -0.8 90
2020-01-19 01:00:00 6.5 7 Norte 11 Norte 0 1005.1 -0.7 92
2020-01-19 00:00:00 5.2 4 Norte -- -- 0 1005.5 -0.6 94
2020-01-18 23:00:00 6.1 5 Noroeste 13 Noroeste 0 1005.5 -0.8 93
2020-01-18 22:00:00 6.1 8 Norte 15 Norte 0 1005.8 -0.7 90
2020-01-18 21:00:00 6.8 11 Norte 15 Norte 0 1006.1 -0.5 92
2020-01-18 20:00:00 5.7 9 Norte 13 Norte 0 1006.3 -0.7 92
2020-01-18 19:00:00 7 6 Este 9 Este 0 1006.5 -0.9 87
2020-01-18 18:00:00 9.1 6 Sudeste 18 Sur 0 1006.6 -1.7 78
2020-01-18 17:00:00 11.3 12 Sur 24 Sur 0 1007 -2.4 72
2020-01-18 16:00:00 12.4 19 Sur 30 Sur 0 1007.4 -3.5 68
2020-01-18 15:00:00 12.2 24 Sur 30 Sudoeste 0 1008.3 -4.5 69
2020-01-18 14:00:00 12.4 18 Sur 26 Sur 0 1009.4 -4 65
2020-01-18 13:00:00 12.5 6 Este 15 Este 0 1010.9 -2.5 62
2020-01-18 12:00:00 10.4 4 Noroeste 13 Norte 0 1012.8 -1.3 66
2020-01-18 11:00:00 8 4 Sudoeste 8 Sur 0 1013.4 -0.4 84
2020-01-18 10:00:00 7 2 Este 9 Norte 0 1013.4 -0.2 83
2020-01-18 09:00:00 6 7 Noroeste 11 Norte 0 1014.1 0.6 83
2020-01-18 08:00:00 5.6 0 Calma 11 Norte 0 1013.8 0 88
2020-01-18 07:00:00 3.7 10 Norte 15 Norte 0 1013.6 -0.5 96
2020-01-18 06:00:00 3.1 3 Este 5 Sudoeste 0 1013.5 -0.5 96
2020-01-18 05:00:00 2.6 3 Norte 9 Norte 0 1013.8 -0.1 96
2020-01-18 04:00:00 1.8 4 Norte 9 Norte 0 1014.1 0.1 98
2020-01-18 03:00:00 2.5 0 Calma 8 Oeste 0 1014 0.4 96
2020-01-18 02:00:00 2.6 0 Calma 8 Nordeste 0 1013.9 0.9 97
2020-01-18 01:00:00 2.7 2 Nordeste 11 Sudoeste 0 1014 0.9 95
2020-01-18 00:00:00 2.7 2 Noroeste 11 Oeste 0 1013.6 1.3 94
2020-01-17 23:00:00 2.1 8 Nordeste 11 Nordeste 0 1013 1.4 93
2020-01-17 22:00:00 4.2 5 Sur 11 Noroeste 0 1013.1 2.4 87
2020-01-17 21:00:00 5.4 8 Oeste 11 Oeste 0 1012.3 2.6 84
2020-01-17 20:00:00 6.2 6 Nordeste 9 Nordeste 0 1011.6 3.4 79
2020-01-17 19:00:00 8.7 5 Este 17 Este 0 1010.7 3.8 71
2020-01-17 18:00:00 10.3 9 Este 21 Este 0 1009.7 3.8 65
2020-01-17 17:00:00 11.4 22 Nordeste 42 Nordeste 0 1008.2 2.1 61
2020-01-17 16:00:00 15.1 31 Nordeste 52 Nordeste 0 1006.9 0.2 58
2020-01-17 15:00:00 19 14 Oeste 24 Oeste 0 1005.9 -2 38
2020-01-17 14:00:00 17.9 11 Noroeste 21 Norte 0 1006.1 -1.6 46
2020-01-17 13:00:00 17.5 5 Sur 17 Sudeste 0 1006.7 -0.8 50
2020-01-17 12:00:00 15.8 5 Sur 9 Sur 0 1007.9 0.5 58
2020-01-17 11:00:00 13.5 5 Sur 11 Sur 0 1007.7 0.4 71
2020-01-17 10:00:00 11 0 Calma 11 Nordeste 0 1007.5 0.9 81
2020-01-17 09:00:00 8.9 6 Oeste 17 Sur 0 1007.4 0.6 88
2020-01-17 08:00:00 8.4 5 Este 22 Sudoeste 0 1007.3 0.5 90
2020-01-17 07:00:00 8.7 11 Sur 32 Sur 0 1006.6 -0.8 89
2020-01-17 06:00:00 8.9 24 Sur 32 Sur 0 1006.8 -1.2 92
2020-01-17 05:00:00 8.6 17 Sudoeste 24 Sur 0 1006.8 -1.7 92
2020-01-17 04:00:00 8.7 16 Sudoeste 33 Sur 0 1007.4 -1.3 93
2020-01-17 03:00:00 9.6 29 Sudoeste 41 Sudoeste 0 1008 -1.3 90
2020-01-17 02:00:00 9.4 22 Sudoeste 30 Sudoeste 0 1008.5 -1 93
2020-01-17 01:00:00 9.1 20 Sudoeste 32 Sur 0 1008.7 -1 94
2020-01-17 00:00:00 9.2 27 Sudoeste 35 Sudoeste 0 1009.3 -0.4 90
2020-01-16 23:00:00 8.2 15 Sudoeste 21 Sur 0 1009.5 0 94
2020-01-16 22:00:00 9.7 8 Sudoeste 24 Sur 0 1009.7 0.4 92
2020-01-16 21:00:00 8.7 11 Sudoeste 18 Sudoeste 0 1009.7 0.6 93
2020-01-16 20:00:00 9.4 18 Sur 26 Sur 0 1009.5 0.7 93
2020-01-16 19:00:00 10 12 Sur 24 Sur 0 1009.3 0.5 89
2020-01-16 18:00:00 10.8 14 Sur 30 Sur 0 1009.1 0.1 72
2020-01-16 17:00:00 12.8 19 Sur 28 Sur 0 1008.8 -0.8 65
2020-01-16 16:00:00 13.7 23 Sur 32 Sur 0 1008.8 -1.8 65
2020-01-16 15:00:00 14.1 21 Sur 28 Sur 0 1009 -2.6 69
2020-01-16 14:00:00 14.1 19 Sur 26 Sur 0 1009.6 -2.6 67
2020-01-16 13:00:00 12.6 11 Sur 17 Sudoeste 0 1010.6 -1.7 68
2020-01-16 12:00:00 10.4 4 Sur 9 Sur 0 1011.6 -0.7 68
2020-01-16 11:00:00 7.9 4 Sur 5 Sudeste 0 1012.2 0.2 77
2020-01-16 10:00:00 4.1 0 Calma 5 Nordeste 0 1012.3 0.6 94
2020-01-16 09:00:00 1.4 0 Calma 5 Este 0 1012.3 0.7 98
2020-01-16 08:00:00 0.8 5 Oeste -- -- 0 1012 0.4 99
2020-01-16 07:00:00 0.9 0 Calma 8 Nordeste 0 1011.7 0.1 98
2020-01-16 06:00:00 0.6 5 Nordeste 9 Nordeste 0 1011.6 -0.2 97
2020-01-16 05:00:00 1.2 0 Calma 8 Norte 0 1011.6 0.2 98
2020-01-16 04:00:00 0.9 0 Calma 8 Noroeste 0 1011.6 0.3 96
2020-01-16 03:00:00 1.6 0 Calma 9 Noroeste 0 1011.8 0.4 96
2020-01-16 02:00:00 3.4 6 Noroeste 9 Noroeste 0 1011.4 0.3 94
2020-01-16 01:00:00 3.5 4 Oeste 9 Sur 0 1011.3 0.8 95
2020-01-16 00:00:00 3.2 0 Calma -- -- 0 1011.4 1.2 94
2020-01-15 23:00:00 4.2 6 Norte 13 Norte 0 1011.1 1.2 89
2020-01-15 22:00:00 5.6 8 Norte 15 Norte 0 1010.5 1.5 87
2020-01-15 21:00:00 4.7 8 Norte 13 Norte 0 1010.2 2.2 88
2020-01-15 20:00:00 7.4 4 Norte 8 Norte 0 1009.9 2.7 81
2020-01-15 19:00:00 8 4 Este 9 Sudeste 0 1009 2.4 80
2020-01-15 18:00:00 9.8 5 Sudeste 17 Sur 0 1008 1.9 73
2020-01-15 17:00:00 12 12 Sur 18 Sur 0 1007.2 1 64
2020-01-15 16:00:00 13.5 15 Sur 24 Sur 0 1006.6 0 52
2020-01-15 15:00:00 14.2 19 Sur 30 Sudoeste 0 1006.1 -1 47
2020-01-15 14:00:00 13.3 23 Sudoeste 32 Sudoeste 0 1006.2 -1.3 50
2020-01-15 13:00:00 13.6 20 Sudoeste 32 Sudoeste 0 1006.6 -0.3 54
2020-01-15 12:00:00 13.3 19 Sudoeste 26 Sudoeste 0 1007.1 0.4 61
2020-01-15 11:00:00 11.2 10 Sudoeste 17 Sudoeste 0 1007.5 1.2 73
2020-01-15 10:00:00 8.9 12 Sur 21 Sudoeste 0 1006.9 1.2 82
2020-01-15 09:00:00 6.7 15 Sur 26 Sudoeste 0 1006.7 1.3 88
2020-01-15 08:00:00 6.5 22 Sur 33 Sudoeste 0 1006.3 1.3 88
2020-01-15 07:00:00 6.1 14 Sudoeste 28 Sur 0 1005.7 0.4 87
2020-01-15 06:00:00 6.9 20 Sudoeste 28 Sudoeste 0 1005.4 0 87
2020-01-15 05:00:00 8 22 Sudoeste 30 Sudoeste 0 1005 -0.3 83
2020-01-15 04:00:00 7.4 15 Sudoeste 28 Sur 0 1005.3 -0.2 84
2020-01-15 03:00:00 7.4 20 Sudoeste 28 Sudoeste 0 1005.4 -0.3 85
2020-01-15 02:00:00 8.1 17 Sudoeste 30 Sudoeste 0 1005.3 -0.2 82
2020-01-15 01:00:00 8.1 17 Sudoeste 35 Sur 0 1005.5 0 84
2020-01-15 00:00:00 7.7 24 Sur 32 Sur 0 1005.7 0.5 85
2020-01-14 23:00:00 7.3 21 Sur 28 Sudoeste 0 1005.5 0.6 84
2020-01-14 22:00:00 8.3 21 Sudoeste 41 Sudoeste 0 1005.5 1.1 80
2020-01-14 21:00:00 8.6 31 Sudoeste 50 Sudoeste 0 1005.2 1.6 73
2020-01-14 20:00:00 8.3 25 Sudoeste 33 Sur 0 1004.9 1.8 68
2020-01-14 19:00:00 8.3 25 Sur 33 Sur 0 1004.4 1.7 74
2020-01-14 18:00:00 9.5 25 Sudoeste 35 Sur 0 1003.6 0.8 71
2020-01-14 17:00:00 12.2 27 Sur 33 Sur 0 1003.1 0 59
2020-01-14 16:00:00 14.3 19 Sur 32 Sur 0 1002.7 -1.5 48
2020-01-14 15:00:00 15.2 26 Sur 32 Sur 0 1002.8 -2.3 43
2020-01-14 14:00:00 14.8 19 Sur 26 Sur 0 1003.1 -2.5 46
2020-01-14 13:00:00 12 8 Sur 18 Sudoeste 0 1004.2 -1 56
2020-01-14 12:00:00 9.2 4 Sur 9 Sur 0 1005.1 0.2 65
2020-01-14 11:00:00 6.5 4 Sudoeste 8 Oeste 0 1005.6 0.8 76
2020-01-14 10:00:00 3.1 2 Sur 11 Nordeste 0 1005.2 0.7 90
2020-01-14 09:00:00 -0.2 6 Nordeste 9 Norte 0 1004.9 0.6 99
2020-01-14 08:00:00 -1.6 5 Oeste 8 Sudoeste 0 1004.8 0.4 100
2020-01-14 07:00:00 -2 5 Sur 8 Sur 0 1004.5 0.1 98
2020-01-14 06:00:00 -1.5 3 Sur 5 Sur 0 1004.3 -0.1 98
2020-01-14 05:00:00 -1.1 6 Sur 15 Norte 0 1004.4 0.2 96
2020-01-14 04:00:00 -0.2 9 Oeste 17 Norte 0 1004.4 -0.1 95
2020-01-14 03:00:00 2.5 10 Norte 18 Norte 0 1004.4 -0.2 95
2020-01-14 02:00:00 -0.3 9 Nordeste 11 Norte 0 1004.2 -0.5 96
2020-01-14 01:00:00 2.5 6 Oeste -- -- 0 1004.5 -0.6 98
2020-01-14 00:00:00 0.5 0 Calma -- -- 0 1004.6 -0.8 97
2020-01-13 23:00:00 1.1 0 Calma 9 Oeste 0 1004.7 -1.1 97
2020-01-13 22:00:00 1.5 4 Sur 11 Oeste 0 1005.1 -0.8 93
2020-01-13 21:00:00 2.6 3 Sur 8 Sur 0 1005.4 0 93
2020-01-13 20:00:00 4.5 3 Norte 11 Nordeste 0 1005.8 0.2 88
2020-01-13 19:00:00 5.2 6 Nordeste 9 Nordeste 0 1005.9 0.4 85
2020-01-13 18:00:00 7.8 8 Sudeste 11 Sudeste 0 1005.4 -0.3 74
2020-01-13 17:00:00 9.7 7 Sur 15 Sur 0 1005.6 -1 70
2020-01-13 16:00:00 11.2 12 Sur 15 Sur 0 1005.5 -2.3 69
2020-01-13 15:00:00 12.2 9 Sur 17 Sudoeste 0 1005.7 -3.2 58
2020-01-13 14:00:00 11.8 5 Sudeste 15 Sudeste 0 1006.6 -3 66
2020-01-13 13:00:00 11.7 0 Calma 5 Sur 0 1007.8 -1.6 64
2020-01-13 12:00:00 9.1 2 Sudeste 8 Sudeste 0 1008.9 -0.2 65
2020-01-13 11:00:00 5.8 2 Sur 5 Sudeste 0 1009.6 0.4 73
2020-01-13 10:00:00 2.8 0 Calma 4 Sur 0 1009.4 0.3 84
2020-01-13 09:00:00 -1.5 0 Calma 4 Este 0 1009.1 -0.1 96
2020-01-13 08:00:00 -2.5 0 Calma 5 Nordeste 0 1009.2 -0.2 96
2020-01-13 07:00:00 -2.4 5 Nordeste 9 Norte 0 1009.1 -0.7 98
2020-01-13 06:00:00 -2.8 0 Calma 8 Sudoeste 0 1009.2 -0.7 95
2020-01-13 05:00:00 -2 6 Sur 11 Sur 0 1009.4 -0.5 93
2020-01-13 04:00:00 -1.4 9 Norte 13 Nordeste 0 1009.8 -0.8 98
2020-01-13 03:00:00 -1.3 2 Nordeste 8 Nordeste 0 1009.9 -1.5 97
2020-01-13 02:00:00 -1.3 6 Oeste 9 Oeste 0 1009.9 -2 95
2020-01-13 01:00:00 -0.2 3 Sur 8 Oeste 0 1010.6 -1.6 95
2020-01-13 00:00:00 0.1 5 Sudoeste 13 Sudoeste 0 1011.4 -1.1 90
2020-01-12 23:00:00 1.2 10 Oeste 13 Sudoeste 0 1011.9 -0.9 91
2020-01-12 22:00:00 2 5 Sudoeste 8 Sudoeste 0 1012.2 -0.3 90
2020-01-12 21:00:00 2.6 2 Sur 9 Noroeste 0 1012.5 0.4 88
2020-01-12 20:00:00 3.9 8 Oeste 11 Oeste 0 1012.8 1 86
2020-01-12 19:00:00 7.3 6 Sudoeste 11 Sudoeste 0 1012.5 0.9 79
2020-01-12 18:00:00 8.9 6 Sudoeste 13 Sudeste 0 1012.1 0.3 62
2020-01-12 17:00:00 14.6 5 Sur 5 Sur 0 1011.8 -0.6 37
2020-01-12 16:00:00 14.6 5 Sur 8 Sur 0 1011.6 -1.8 33
2020-01-12 15:00:00 14.3 2 Sur 9 Sudoeste 0 1011.8 -2.7 39
2020-01-12 14:00:00 12.9 5 Sur 9 Sur 0 1012.4 -2.6 56
2020-01-12 13:00:00 11.2 3 Sudeste 9 Sur 0 1013.4 -1.2 61
2020-01-12 12:00:00 8.2 2 Sudeste 8 Sur 0 1014.5 0.5 73
2020-01-12 11:00:00 5 3 Sudoeste 8 Oeste 0 1015 1.2 82
2020-01-12 10:00:00 2.1 0 Calma 8 Nordeste 0 1014.6 1.3 95
2020-01-12 09:00:00 -1.1 0 Calma 5 Oeste 0 1014 1.1 100
2020-01-12 08:00:00 -2 0 Calma 4 Oeste 0 1013.8 0.8 100
2020-01-12 07:00:00 -1.8 0 Calma 4 Sudeste 0 1013.3 0.1 100
2020-01-12 06:00:00 -1.8 0 Calma 4 Oeste 0 1012.9 -0.5 100
2020-01-12 05:00:00 -1.6 0 Calma 4 Nordeste 0 1013 -0.3 100
2020-01-12 04:00:00 -1.2 2 Nordeste 4 Este 0 1013.2 -0.3 100
2020-01-12 03:00:00 -0.9 0 Calma 4 Oeste 0 1013.4 -0.4 100
2020-01-12 02:00:00 -0.2 0 Calma 4 Oeste 0 1013.3 -0.6 99
2020-01-12 01:00:00 -0.2 2 Este 4 Este 0 1013.5 -0.5 98
2020-01-12 00:00:00 0.7 0 Calma -- -- 0 1013.8 -0.1 96
2020-01-11 23:00:00 1.6 0 Calma 5 Oeste 0 1013.9 0 95
2020-01-11 22:00:00 2.4 0 Calma 5 Sur 0 1014 0.5 94
2020-01-11 21:00:00 2.7 0 Calma 8 Norte 0 1013.9 0.9 89
2020-01-11 20:00:00 3.9 0 Calma 13 Noroeste 0 1013.9 1.2 84
2020-01-11 19:00:00 5.7 9 Noroeste 13 Noroeste 0 1013.5 0.7 80
2020-01-11 18:00:00 8 2 Noroeste 13 Sudeste 0 1013 0 71
2020-01-11 17:00:00 11.3 4 Norte 18 Norte 0 1012.7 -0.6 54
2020-01-11 16:00:00 12.5 8 Nordeste 18 Nordeste 0 1012.8 -1.1 46
2020-01-11 15:00:00 12.3 12 Nordeste 21 Nordeste 0 1013 -1.7 51
2020-01-11 14:00:00 11.6 11 Nordeste 17 Nordeste 0 1013.3 -1.8 55
2020-01-11 13:00:00 10.8 9 Nordeste 21 Nordeste 0 1013.9 -0.7 59
2020-01-11 12:00:00 9.8 10 Nordeste 21 Norte 0 1014.7 0.9 65
2020-01-11 11:00:00 8.3 10 Nordeste 15 Nordeste 0 1015.1 1.5 75
2020-01-11 10:00:00 3.4 4 Nordeste 15 Este 0 1014.6 1.2 95
2020-01-11 09:00:00 2.4 5 Nordeste 15 Noroeste 0 1013.8 1 94
2020-01-11 08:00:00 2.5 10 Noroeste 13 Noroeste 0 1013.6 1.1 96
2020-01-11 07:00:00 3.1 6 Sur 17 Norte 0 1013.4 0.8 88
2020-01-11 06:00:00 3.5 9 Norte 15 Norte 0 1012.8 0.4 94
2020-01-11 05:00:00 4.1 9 Noroeste 15 Noroeste 0 1012.5 0.1 94
2020-01-11 04:00:00 4 9 Noroeste 17 Norte 0 1012.6 0 93
2020-01-11 03:00:00 3.8 9 Norte 15 Norte 0 1012.4 -0.1 98
2020-01-11 02:00:00 2.1 6 Oeste 9 Oeste 0 1012.4 0.1 98
2020-01-11 01:00:00 3.3 4 Sur 13 Norte 0 1012.6 0.5 95
2020-01-11 00:00:00 4.3 9 Norte 13 Norte 0 1012.5 0.8 95
2020-01-10 23:00:00 5.9 10 Norte 13 Noroeste 0 1012.3 1.2 93
2020-01-10 22:00:00 5.6 5 Noroeste 8 Noroeste 0 1012.1 1.8 92
2020-01-10 21:00:00 5.6 3 Oeste 11 Nordeste 0 1011.7 2.1 92
2020-01-10 20:00:00 6.6 8 Nordeste 13 Este 0 1011.1 2 95
2020-01-10 19:00:00 7 8 Nordeste 9 Este 0 1010.3 1.3 94
2020-01-10 18:00:00 10 6 Oeste -- -- 0 1009.6 0.9 85
2020-01-10 17:00:00 13 6 Oeste 9 Oeste 0 1009.1 0.7 74
2020-01-10 16:00:00 13.5 8 Sur 13 Sur 0 1009 0.2 72
2020-01-10 15:00:00 13.3 8 Sudoeste 13 Sudoeste 0 1008.7 -0.8 71
2020-01-10 14:00:00 11.6 0 Calma 11 Norte 0 1008.4 -1.1 78
2020-01-10 13:00:00 11 3 Norte 8 Norte 0 1008.8 -0.7 82
2020-01-10 12:00:00 10.2 0 Calma 8 Nordeste 0 1009.5 0.1 90
2020-01-10 11:00:00 8.9 0 Calma 5 Noroeste 0 1009.5 0.3 96
2020-01-10 10:00:00 7.9 0 Calma 9 Sur 0.1 1009.5 1 100
2020-01-10 09:00:00 7.6 5 Oeste 11 Oeste 2.1 1009.4 1.2 100
2020-01-10 08:00:00 7.7 8 Norte 21 Norte 4.1 1009.2 1.3 100
2020-01-10 07:00:00 7.7 14 Norte 22 Norte 4.4 1008.5 0.6 99
2020-01-10 06:00:00 8.3 16 Norte 24 Norte 0 1008.2 0.2 93
2020-01-10 05:00:00 8.9 12 Nordeste 22 Norte 0 1007.9 0.3 86
2020-01-10 04:00:00 8.4 8 Noroeste 15 Norte 0 1007.9 0.8 94
2020-01-10 03:00:00 8.6 7 Norte 11 Norte 0 1008 0.6 89
2020-01-10 02:00:00 9.1 7 Oeste 17 Sur 0 1007.6 1.1 86
2020-01-10 01:00:00 9.3 12 Sur 21 Sudoeste 0 1007.1 0.6 85
2020-01-10 00:00:00 9.7 13 Sudoeste 39 Sur 0 1007.4 0.6 84
2020-01-09 23:00:00 9.6 27 Sudoeste 45 Sudoeste 0 1006.5 -0.4 85
2020-01-09 22:00:00 9.4 28 Sudoeste 41 Sur 0 1006.5 -0.3 87
2020-01-09 21:00:00 9.4 31 Sur 41 Sudoeste 0 1006.8 0.1 87
2020-01-09 20:00:00 9.5 24 Sur 33 Sur 0 1006.9 0.1 90
2020-01-09 19:00:00 9.8 25 Sur 35 Sur 0 1006.8 -0.2 90
2020-01-09 18:00:00 10.4 26 Sur 37 Sur 0 1006.7 -0.6 86
2020-01-09 17:00:00 12.3 28 Sur 42 Sur 0 1006.8 -1.4 78
2020-01-09 16:00:00 14.2 31 Sur 39 Sur 0 1007 -2.3 69
2020-01-09 15:00:00 15 27 Sudoeste 41 Sudoeste 0 1007.3 -3.3 63
2020-01-09 14:00:00 15 30 Sur 39 Sur 0 1008.2 -3.4 64
2020-01-09 13:00:00 13.8 30 Sur 37 Sur 0 1009.3 -2.4 70
2020-01-09 12:00:00 11.1 19 Sur 26 Sudoeste 0 1010.6 -1 82
2020-01-09 11:00:00 6.6 3 Sur 5 Sur 0 1011.6 0.1 90
2020-01-09 10:00:00 2.7 2 Sur 5 Sudoeste 0 1011.7 0 100
2020-01-09 09:00:00 0.2 3 Oeste 5 Oeste 0 1011.6 -0.2 100
2020-01-09 08:00:00 -0.2 0 Calma 4 Noroeste 0 1011.5 -0.6 100
2020-01-09 07:00:00 -0.5 0 Calma 9 Oeste 0 1011.7 -0.9 100
2020-01-09 06:00:00 0.3 7 Oeste 9 Oeste 0 1011.8 -1.4 100
2020-01-09 05:00:00 -0.4 6 Sur 8 Sur 0 1012.1 -1.2 99
2020-01-09 04:00:00 0.2 0 Calma 9 Oeste 0 1012.6 -1.2 99
2020-01-09 03:00:00 0.4 0 Calma 5 Sudoeste 0 1013.2 -1.1 98
2020-01-09 02:00:00 1.1 2 Este 4 Nordeste 0 1013.3 -1.3 98
2020-01-09 01:00:00 1.7 0 Calma 8 Sudeste 0 1013.8 -1 97
2020-01-09 00:00:00 2.4 4 Sudeste 8 Sudeste 0 1014.3 -0.3 95
2020-01-08 23:00:00 3.8 0 Calma 9 Noroeste 0 1014.6 0.1 91
2020-01-08 22:00:00 6.4 6 Oeste 9 Oeste 0 1014.8 0.3 89
2020-01-08 21:00:00 6.4 2 Sudoeste 8 Sudeste 0 1014.6 0.5 88
2020-01-08 20:00:00 7.6 2 Nordeste 13 Noroeste 0 1014.5 0.7 80
2020-01-08 19:00:00 9.1 3 Noroeste 8 Oeste 0 1014.5 0.8 77
2020-01-08 18:00:00 10.9 5 Este 13 Sudeste 0 1014.1 0.4 71
2020-01-08 17:00:00 14.9 2 Sudeste 15 Este 0 1013.8 0 57
2020-01-08 16:00:00 15.4 11 Este 18 Nordeste 0 1013.7 -0.5 54
2020-01-08 15:00:00 15.5 14 Nordeste 21 Este 0 1013.7 -1.2 52
2020-01-08 14:00:00 15.3 13 Nordeste 28 Nordeste 0 1013.8 -1.5 57
2020-01-08 13:00:00 14.9 20 Nordeste 32 Nordeste 0 1014.2 -0.9 60
2020-01-08 12:00:00 13.9 18 Nordeste 24 Nordeste 0 1014.9 0.2 67
2020-01-08 11:00:00 10.7 6 Nordeste 11 Norte 0 1015.3 1.2 74
2020-01-08 10:00:00 8.3 6 Noroeste 15 Noroeste 0 1015.1 1.6 83
2020-01-08 09:00:00 2.8 6 Norte 17 Noroeste 0 1014.7 1.8 92
2020-01-08 08:00:00 2 7 Noroeste 11 Noroeste 0 1014.1 1.6 94
2020-01-08 07:00:00 1.5 6 Nordeste 13 Norte 0 1013.5 1 96
2020-01-08 06:00:00 2.7 7 Nordeste 11 Nordeste 0 1012.9 0.6 93
2020-01-08 05:00:00 2.4 7 Sudoeste 11 Oeste 0 1012.5 0.4 98
2020-01-08 04:00:00 1.8 5 Sur 15 Nordeste 0 1012.5 0.8 96
2020-01-08 03:00:00 1.5 7 Nordeste 17 Nordeste 0 1012.3 0.8 98
2020-01-08 02:00:00 1.4 8 Nordeste 11 Nordeste 0 1012.1 0.4 97
2020-01-08 01:00:00 2.4 3 Sudoeste 8 Sudoeste 0 1011.7 0 98
2020-01-08 00:00:00 2.8 3 Nordeste 9 Nordeste 0 1011.5 -0.1 93
2020-01-07 23:00:00 4.7 3 Nordeste 15 Nordeste 0 1011.7 -0.1 88
2020-01-07 22:00:00 5.3 5 Este 11 Este 0 1011.7 -0.1 86
2020-01-07 21:00:00 7 6 Nordeste 15 Noroeste 0 1011.6 -0.1 83
2020-01-07 20:00:00 10 11 Noroeste 17 Noroeste 0 1011.8 0.3 65
2020-01-07 19:00:00 11.2 9 Noroeste 11 Noroeste 0 1011.8 0.1 66
2020-01-07 18:00:00 12.9 0 Calma 4 Oeste 0 1011.7 -0.1 61
2020-01-07 17:00:00 14.7 3 Norte 9 Nordeste 0 1011.5 -0.7 55
2020-01-07 16:00:00 16.4 4 Sudoeste 8 Sur 0 1011.7 -0.7 49
2020-01-07 15:00:00 15.2 3 Sudoeste 9 Sur 0 1011.8 -1.7 53
2020-01-07 14:00:00 13.9 5 Este 9 Nordeste 0 1012.2 -2.1 55
2020-01-07 13:00:00 12.6 4 Sudeste 11 Sur 0 1012.4 -2 64
2020-01-07 12:00:00 10.2 3 Sur 8 Sur 0 1013.5 -0.5 73
2020-01-07 11:00:00 5.6 3 Sur 11 Sudoeste 0 1014.3 0.8 93
2020-01-07 10:00:00 4.1 0 Calma 8 Nordeste 0 1014.4 1.1 100
2020-01-07 09:00:00 0.2 8 Nordeste 9 Nordeste 0 1014 1.1 100
2020-01-07 08:00:00 -0.3 5 Nordeste 9 Nordeste 0 1013.5 0.2 100
2020-01-07 07:00:00 -0.9 0 Calma 8 Norte 0 1013.3 -0.1 100
2020-01-07 06:00:00 -0.3 5 Oeste 11 Oeste 0 1012.9 -1.1 100
2020-01-07 05:00:00 0.5 5 Sudoeste 8 Oeste 0 1013.3 -0.8 100
2020-01-07 04:00:00 0.6 4 Sudoeste 9 Sur 0 1013.4 -0.5 100
2020-01-07 03:00:00 0.9 5 Nordeste 9 Sur 0 1014 -0.2 99
2020-01-07 02:00:00 1.8 0 Calma 5 Sudoeste 0 1014.1 -0.1 99
2020-01-07 01:00:00 2.4 6 Sur -- -- 0 1013.9 0 99
2020-01-07 00:00:00 3.6 4 Sudoeste 8 Nordeste 0 1014.2 0.7 99
2020-01-06 23:00:00 4.5 4 Oeste 9 Norte 0 1014.2 1.2 98
2020-01-06 22:00:00 4 0 Calma 8 Norte 0 1013.9 1.3 95
2020-01-06 21:00:00 7.3 5 Noroeste -- -- 0 1013.5 1.4 96
2020-01-06 20:00:00 6.2 3 Norte 11 Nordeste 0 1013 1.3 96
2020-01-06 19:00:00 9.2 3 Sur 9 Este 0 1012.6 1.1 87
2020-01-06 18:00:00 10 6 Sudeste 13 Sudeste 0 1012.1 0.7 79
2020-01-06 17:00:00 13.1 10 Sudeste 13 Sudeste 0 1011.7 -0.1 68
2020-01-06 16:00:00 15.2 5 Sur 9 Sur 0 1011.5 -1.1 56
2020-01-06 15:00:00 14.8 6 Sudoeste 15 Sur 0 1011.4 -2.1 59
2020-01-06 14:00:00 14.3 9 Sur 17 Sur 0 1011.8 -2.3 62
2020-01-06 13:00:00 14.1 3 Sur 8 Sur 0 1012.6 -1.4 59
2020-01-06 12:00:00 10.9 2 Sudeste 8 Sudeste 0 1013.5 -0.2 63
2020-01-06 11:00:00 7.3 0 Calma 8 Nordeste 0 1014.1 0.6 72
2020-01-06 10:00:00 4.3 4 Sudeste 5 Este 0 1014 0.8 79